Edgewater Park, New Jersey
Current Conditions -  °F | °C
As of 9:26 AM on Wednesday 22 Oct 2014 (Local Time) from KPNE Reporting Station
Light Rain Light Rain  
Wind Chill: 57°   Ceiling: 1100
Heat Index: 57°   Visibility: 7mi
Dew Point: 51°   Wind: 16mph
Humidity: 81%   Direction: 30°NNE
Pressure: 29.9"   Gusts: NA
Location:  40.0506°N, 74.9181°W
Report Text: KPNE 221326Z 03014KT 7SM -RA BKN011 BKN017 OVC080 14/11 A2990 RMK AO2 P0000 T01390106 $
Loading
Personal Weather Stations






























Interactive Weather Map
Tropical Storm Tracking
New forecast layout! Learn more

10-Day Weather Forecast

Advertisements
Track Severe Weather on mobile